sensor_id;sensor_type;location;lat;lon;timestamp;temperature;humidity
12049;DHT22;6085;49.452;8.502;2023-03-13T00:00:42;9.70;99.90
12049;DHT22;6085;49.452;8.502;2023-03-13T00:04:44;9.70;99.90
12049;DHT22;6085;49.452;8.502;2023-03-13T00:08:48;9.80;99.90
12049;DHT22;6085;49.452;8.502;2023-03-13T00:12:50;9.80;99.90
12049;DHT22;6085;49.452;8.502;2023-03-13T00:16:51;9.80;99.90
12049;DHT22;6085;49.452;8.502;2023-03-13T00:20:57;9.80;99.90
12049;DHT22;6085;49.452;8.502;2023-03-13T00:25:00;9.80;99.90
12049;DHT22;6085;49.452;8.502;2023-03-13T00:29:02;9.80;99.90
12049;DHT22;6085;49.452;8.502;2023-03-13T00:33:04;9.80;99.90
12049;DHT22;6085;49.452;8.502;2023-03-13T00:37:06;9.80;99.90
12049;DHT22;6085;49.452;8.502;2023-03-13T00:41:12;9.80;99.90
12049;DHT22;6085;49.452;8.502;2023-03-13T00:45:14;9.80;99.90
12049;DHT22;6085;49.452;8.502;2023-03-13T00:49:17;9.80;99.90
12049;DHT22;6085;49.452;8.502;2023-03-13T00:53:19;9.80;99.90
12049;DHT22;6085;49.452;8.502;2023-03-13T00:57:23;9.80;99.90
12049;DHT22;6085;49.452;8.502;2023-03-13T01:01:26;9.90;99.90
12049;DHT22;6085;49.452;8.502;2023-03-13T01:05:28;9.90;99.90
12049;DHT22;6085;49.452;8.502;2023-03-13T01:09:29;9.80;99.90
12049;DHT22;6085;49.452;8.502;2023-03-13T01:13:33;9.80;99.90
12049;DHT22;6085;49.452;8.502;2023-03-13T01:17:35;9.70;99.90
12049;DHT22;6085;49.452;8.502;2023-03-13T01:21:37;9.70;99.90
12049;DHT22;6085;49.452;8.502;2023-03-13T01:25:39;9.80;99.90
12049;DHT22;6085;49.452;8.502;2023-03-13T01:29:43;9.90;99.90
12049;DHT22;6085;49.452;8.502;2023-03-13T01:33:45;10.10;99.90
12049;DHT22;6085;49.452;8.502;2023-03-13T01:37:47;10.30;99.90
12049;DHT22;6085;49.452;8.502;2023-03-13T01:41:49;10.50;99.90
12049;DHT22;6085;49.452;8.502;2023-03-13T01:46:09;10.70;99.90
12049;DHT22;6085;49.452;8.502;2023-03-13T01:50:13;10.80;99.90
12049;DHT22;6085;49.452;8.502;2023-03-13T01:54:18;10.90;99.90
12049;DHT22;6085;49.452;8.502;2023-03-13T01:58:21;10.90;99.90
12049;DHT22;6085;49.452;8.502;2023-03-13T02:02:25;10.90;99.90
12049;DHT22;6085;49.452;8.502;2023-03-13T02:06:30;11.00;99.90
12049;DHT22;6085;49.452;8.502;2023-03-13T02:10:36;11.00;99.90
12049;DHT22;6085;49.452;8.502;2023-03-13T02:14:42;11.00;99.90
12049;DHT22;6085;49.452;8.502;2023-03-13T02:18:46;11.00;99.90
12049;DHT22;6085;49.452;8.502;2023-03-13T02:22:53;10.90;99.90
12049;DHT22;6085;49.452;8.502;2023-03-13T02:26:59;10.90;99.90
12049;DHT22;6085;49.452;8.502;2023-03-13T02:31:01;10.90;99.90
12049;DHT22;6085;49.452;8.502;2023-03-13T02:35:06;11.00;99.90
12049;DHT22;6085;49.452;8.502;2023-03-13T02:39:10;11.00;99.90
12049;DHT22;6085;49.452;8.502;2023-03-13T02:43:18;11.00;99.90
12049;DHT22;6085;49.452;8.502;2023-03-13T02:47:23;11.10;99.90
12049;DHT22;6085;49.452;8.502;2023-03-13T02:51:29;11.10;99.90
12049;DHT22;6085;49.452;8.502;2023-03-13T02:55:35;11.10;99.90
12049;DHT22;6085;49.452;8.502;2023-03-13T02:59:39;11.10;99.90
12049;DHT22;6085;49.452;8.502;2023-03-13T03:03:41;11.00;99.90
12049;DHT22;6085;49.452;8.502;2023-03-13T03:07:43;11.00;99.90
12049;DHT22;6085;49.452;8.502;2023-03-13T03:11:45;10.90;99.90
12049;DHT22;6085;49.452;8.502;2023-03-13T03:15:48;10.90;99.90
12049;DHT22;6085;49.452;8.502;2023-03-13T03:19:50;10.90;99.90
12049;DHT22;6085;49.452;8.502;2023-03-13T03:23:52;10.90;99.90
12049;DHT22;6085;49.452;8.502;2023-03-13T03:27:54;10.80;99.90
12049;DHT22;6085;49.452;8.502;2023-03-13T03:31:57;10.80;99.90
12049;DHT22;6085;49.452;8.502;2023-03-13T03:36:00;10.80;99.90
12049;DHT22;6085;49.452;8.502;2023-03-13T03:40:02;10.80;99.90
12049;DHT22;6085;49.452;8.502;2023-03-13T03:44:06;10.70;99.90
12049;DHT22;6085;49.452;8.502;2023-03-13T03:48:09;10.70;99.90
12049;DHT22;6085;49.452;8.502;2023-03-13T03:52:11;10.60;99.90
12049;DHT22;6085;49.452;8.502;2023-03-13T03:56:13;10.60;99.90
12049;DHT22;6085;49.452;8.502;2023-03-13T04:00:16;10.60;99.90
12049;DHT22;6085;49.452;8.502;2023-03-13T04:04:21;10.60;99.90
12049;DHT22;6085;49.452;8.502;2023-03-13T04:08:23;10.60;99.90
12049;DHT22;6085;49.452;8.502;2023-03-13T04:12:25;10.60;99.90
12049;DHT22;6085;49.452;8.502;2023-03-13T04:16:27;10.50;99.90
12049;DHT22;6085;49.452;8.502;2023-03-13T04:20:30;10.50;99.90
12049;DHT22;6085;49.452;8.502;2023-03-13T04:24:32;10.50;99.90
12049;DHT22;6085;49.452;8.502;2023-03-13T04:28:34;10.50;99.90
12049;DHT22;6085;49.452;8.502;2023-03-13T04:32:36;10.50;99.90
12049;DHT22;6085;49.452;8.502;2023-03-13T04:36:40;10.50;99.90
12049;DHT22;6085;49.452;8.502;2023-03-13T04:40:42;10.50;99.90
12049;DHT22;6085;49.452;8.502;2023-03-13T04:44:44;10.60;99.90
12049;DHT22;6085;49.452;8.502;2023-03-13T04:48:46;10.60;99.90
12049;DHT22;6085;49.452;8.502;2023-03-13T04:52:49;10.50;99.90
12049;DHT22;6085;49.452;8.502;2023-03-13T04:56:51;10.60;99.90
12049;DHT22;6085;49.452;8.502;2023-03-13T05:00:53;10.70;99.90
12049;DHT22;6085;49.452;8.502;2023-03-13T05:04:56;10.70;99.90
12049;DHT22;6085;49.452;8.502;2023-03-13T05:08:59;10.70;99.90
12049;DHT22;6085;49.452;8.502;2023-03-13T05:13:01;10.80;99.90
12049;DHT22;6085;49.452;8.502;2023-03-13T05:17:03;10.80;99.90
12049;DHT22;6085;49.452;8.502;2023-03-13T05:21:06;10.90;99.90
12049;DHT22;6085;49.452;8.502;2023-03-13T05:25:09;10.90;99.90
12049;DHT22;6085;49.452;8.502;2023-03-13T05:29:11;10.90;99.90
12049;DHT22;6085;49.452;8.502;2023-03-13T05:33:13;11.00;99.90
12049;DHT22;6085;49.452;8.502;2023-03-13T05:37:15;11.00;99.90
12049;DHT22;6085;49.452;8.502;2023-03-13T05:41:18;11.10;99.90
12049;DHT22;6085;49.452;8.502;2023-03-13T05:45:21;11.10;99.90
12049;DHT22;6085;49.452;8.502;2023-03-13T05:49:23;11.20;99.90
12049;DHT22;6085;49.452;8.502;2023-03-13T05:53:25;11.20;99.90
12049;DHT22;6085;49.452;8.502;2023-03-13T05:57:28;11.30;99.90
12049;DHT22;6085;49.452;8.502;2023-03-13T06:01:30;11.40;99.90
12049;DHT22;6085;49.452;8.502;2023-03-13T06:05:32;11.40;99.90
12049;DHT22;6085;49.452;8.502;2023-03-13T06:09:34;11.50;99.90
12049;DHT22;6085;49.452;8.502;2023-03-13T06:13:38;11.50;99.90
12049;DHT22;6085;49.452;8.502;2023-03-13T06:17:40;11.50;99.90
12049;DHT22;6085;49.452;8.502;2023-03-13T06:21:42;11.60;99.90
12049;DHT22;6085;49.452;8.502;2023-03-13T06:25:46;11.60;99.90
12049;DHT22;6085;49.452;8.502;2023-03-13T06:29:49;11.70;99.90
12049;DHT22;6085;49.452;8.502;2023-03-13T06:33:52;11.70;99.90
12049;DHT22;6085;49.452;8.502;2023-03-13T06:37:55;11.70;99.90
12049;DHT22;6085;49.452;8.502;2023-03-13T06:41:57;11.80;99.90
12049;DHT22;6085;49.452;8.502;2023-03-13T06:46:03;11.90;99.90
12049;DHT22;6085;49.452;8.502;2023-03-13T06:50:06;11.90;99.90
12049;DHT22;6085;49.452;8.502;2023-03-13T06:54:08;12.10;99.90
12049;DHT22;6085;49.452;8.502;2023-03-13T06:58:11;12.20;99.90
12049;DHT22;6085;49.452;8.502;2023-03-13T07:02:15;12.30;99.90
12049;DHT22;6085;49.452;8.502;2023-03-13T07:06:18;12.40;99.90
12049;DHT22;6085;49.452;8.502;2023-03-13T07:10:22;12.40;99.90
12049;DHT22;6085;49.452;8.502;2023-03-13T07:14:25;12.40;99.90
12049;DHT22;6085;49.452;8.502;2023-03-13T07:18:28;12.50;99.90
12049;DHT22;6085;49.452;8.502;2023-03-13T07:22:30;12.70;99.90
12049;DHT22;6085;49.452;8.502;2023-03-13T07:26:32;12.80;99.90
12049;DHT22;6085;49.452;8.502;2023-03-13T07:30:34;12.80;99.90
12049;DHT22;6085;49.452;8.502;2023-03-13T07:34:37;13.00;99.90
12049;DHT22;6085;49.452;8.502;2023-03-13T07:38:39;13.10;99.90
12049;DHT22;6085;49.452;8.502;2023-03-13T07:42:43;13.10;99.90
12049;DHT22;6085;49.452;8.502;2023-03-13T07:46:45;13.10;99.90
12049;DHT22;6085;49.452;8.502;2023-03-13T07:50:49;13.10;99.90
12049;DHT22;6085;49.452;8.502;2023-03-13T07:54:51;13.20;99.90
12049;DHT22;6085;49.452;8.502;2023-03-13T07:58:53;13.40;99.90
12049;DHT22;6085;49.452;8.502;2023-03-13T08:02:55;13.50;99.90
12049;DHT22;6085;49.452;8.502;2023-03-13T08:06:58;13.60;99.90
12049;DHT22;6085;49.452;8.502;2023-03-13T08:11:02;13.70;99.90
12049;DHT22;6085;49.452;8.502;2023-03-13T08:15:05;13.80;99.90
12049;DHT22;6085;49.452;8.502;2023-03-13T08:19:07;13.90;99.90
12049;DHT22;6085;49.452;8.502;2023-03-13T08:23:12;14.00;99.90
12049;DHT22;6085;49.452;8.502;2023-03-13T08:27:14;14.10;99.90
12049;DHT22;6085;49.452;8.502;2023-03-13T08:31:18;14.10;99.90
12049;DHT22;6085;49.452;8.502;2023-03-13T08:35:20;14.20;99.90
12049;DHT22;6085;49.452;8.502;2023-03-13T08:39:23;14.30;99.90
12049;DHT22;6085;49.452;8.502;2023-03-13T08:43:25;14.30;99.90
12049;DHT22;6085;49.452;8.502;2023-03-13T08:47:27;14.30;99.90
12049;DHT22;6085;49.452;8.502;2023-03-13T08:51:29;14.40;99.90
12049;DHT22;6085;49.452;8.502;2023-03-13T08:55:32;14.60;99.90
12049;DHT22;6085;49.452;8.502;2023-03-13T08:59:34;14.70;99.90
12049;DHT22;6085;49.452;8.502;2023-03-13T09:03:37;14.60;99.90
12049;DHT22;6085;49.452;8.502;2023-03-13T09:07:39;14.50;99.90
12049;DHT22;6085;49.452;8.502;2023-03-13T09:11:42;14.30;99.90
12049;DHT22;6085;49.452;8.502;2023-03-13T09:15:44;14.30;99.90
12049;DHT22;6085;49.452;8.502;2023-03-13T09:19:46;14.60;99.90
12049;DHT22;6085;49.452;8.502;2023-03-13T09:23:48;14.90;99.90
12049;DHT22;6085;49.452;8.502;2023-03-13T09:27:52;15.20;99.90
12049;DHT22;6085;49.452;8.502;2023-03-13T09:31:54;15.30;99.90
12049;DHT22;6085;49.452;8.502;2023-03-13T09:35:56;15.20;99.90
12049;DHT22;6085;49.452;8.502;2023-03-13T09:39:57;14.80;99.90
12049;DHT22;6085;49.452;8.502;2023-03-13T09:44:06;14.70;99.90
12049;DHT22;6085;49.452;8.502;2023-03-13T09:48:13;14.70;99.90
12049;DHT22;6085;49.452;8.502;2023-03-13T09:52:22;14.90;99.90
12049;DHT22;6085;49.452;8.502;2023-03-13T09:56:27;15.40;99.90
12049;DHT22;6085;49.452;8.502;2023-03-13T10:00:35;15.90;99.90
12049;DHT22;6085;49.452;8.502;2023-03-13T10:04:41;16.00;99.90
12049;DHT22;6085;49.452;8.502;2023-03-13T10:08:45;16.10;99.90
12049;DHT22;6085;49.452;8.502;2023-03-13T10:12:49;16.40;99.90
12049;DHT22;6085;49.452;8.502;2023-03-13T10:17:01;16.80;99.90
12049;DHT22;6085;49.452;8.502;2023-03-13T10:21:14;18.20;99.90
12049;DHT22;6085;49.452;8.502;2023-03-13T10:25:26;18.80;99.90
12049;DHT22;6085;49.452;8.502;2023-03-13T10:29:30;18.20;99.90
12049;DHT22;6085;49.452;8.502;2023-03-13T10:33:36;17.80;99.90
12049;DHT22;6085;49.452;8.502;2023-03-13T10:37:42;17.40;99.90
12049;DHT22;6085;49.452;8.502;2023-03-13T10:41:44;17.10;99.90
12049;DHT22;6085;49.452;8.502;2023-03-13T10:45:47;17.10;99.90
12049;DHT22;6085;49.452;8.502;2023-03-13T10:49:54;17.50;99.90
12049;DHT22;6085;49.452;8.502;2023-03-13T10:53:56;17.80;99.90
12049;DHT22;6085;49.452;8.502;2023-03-13T10:58:00;17.90;99.90
12049;DHT22;6085;49.452;8.502;2023-03-13T11:02:02;18.60;99.90
12049;DHT22;6085;49.452;8.502;2023-03-13T11:06:15;18.90;99.90
12049;DHT22;6085;49.452;8.502;2023-03-13T11:10:25;18.90;99.90
12049;DHT22;6085;49.452;8.502;2023-03-13T11:14:29;18.60;99.90
12049;DHT22;6085;49.452;8.502;2023-03-13T11:18:35;18.40;99.90
12049;DHT22;6085;49.452;8.502;2023-03-13T11:22:59;18.60;99.90
12049;DHT22;6085;49.452;8.502;2023-03-13T11:27:12;18.50;99.90
12049;DHT22;6085;49.452;8.502;2023-03-13T11:31:19;18.30;99.90
12049;DHT22;6085;49.452;8.502;2023-03-13T11:35:36;17.90;99.90
12049;DHT22;6085;49.452;8.502;2023-03-13T11:39:52;18.00;99.90
12049;DHT22;6085;49.452;8.502;2023-03-13T11:44:16;18.30;99.90
12049;DHT22;6085;49.452;8.502;2023-03-13T11:48:34;19.00;99.90
12049;DHT22;6085;49.452;8.502;2023-03-13T11:52:50;19.60;99.90
12049;DHT22;6085;49.452;8.502;2023-03-13T11:57:01;19.60;99.90
12049;DHT22;6085;49.452;8.502;2023-03-13T12:01:06;19.70;99.90
12049;DHT22;6085;49.452;8.502;2023-03-13T12:05:11;19.60;99.90
12049;DHT22;6085;49.452;8.502;2023-03-13T12:09:17;19.30;99.90
12049;DHT22;6085;49.452;8.502;2023-03-13T12:13:27;19.00;99.90
12049;DHT22;6085;49.452;8.502;2023-03-13T12:17:33;18.80;99.90
12049;DHT22;6085;49.452;8.502;2023-03-13T12:21:37;19.60;99.90
12049;DHT22;6085;49.452;8.502;2023-03-13T12:25:45;20.80;99.90
12049;DHT22;6085;49.452;8.502;2023-03-13T12:29:54;21.80;99.90
12049;DHT22;6085;49.452;8.502;2023-03-13T12:34:05;21.70;99.90
12049;DHT22;6085;49.452;8.502;2023-03-13T12:38:15;21.20;99.90
12049;DHT22;6085;49.452;8.502;2023-03-13T12:42:32;20.60;99.90
12049;DHT22;6085;49.452;8.502;2023-03-13T12:46:43;20.60;99.90
12049;DHT22;6085;49.452;8.502;2023-03-13T12:51:05;20.50;99.90
12049;DHT22;6085;49.452;8.502;2023-03-13T12:55:40;20.20;99.90
12049;DHT22;6085;49.452;8.502;2023-03-13T12:59:52;19.80;99.90
12049;DHT22;6085;49.452;8.502;2023-03-13T13:03:58;19.70;99.90
12049;DHT22;6085;49.452;8.502;2023-03-13T13:08:01;19.80;99.90
12049;DHT22;6085;49.452;8.502;2023-03-13T13:12:18;19.90;99.90
12049;DHT22;6085;49.452;8.502;2023-03-13T13:16:21;20.00;99.90
12049;DHT22;6085;49.452;8.502;2023-03-13T13:20:43;20.20;99.90
12049;DHT22;6085;49.452;8.502;2023-03-13T13:24:48;20.30;99.90
12049;DHT22;6085;49.452;8.502;2023-03-13T13:28:51;20.80;99.90
12049;DHT22;6085;49.452;8.502;2023-03-13T13:32:53;21.00;99.90
12049;DHT22;6085;49.452;8.502;2023-03-13T13:36:57;21.20;99.90
12049;DHT22;6085;49.452;8.502;2023-03-13T13:41:02;21.60;99.90
12049;DHT22;6085;49.452;8.502;2023-03-13T13:45:21;21.40;99.90
12049;DHT22;6085;49.452;8.502;2023-03-13T13:49:31;21.80;99.90
12049;DHT22;6085;49.452;8.502;2023-03-13T13:53:41;21.70;99.90
12049;DHT22;6085;49.452;8.502;2023-03-13T13:57:44;21.50;99.90
12049;DHT22;6085;49.452;8.502;2023-03-13T14:01:48;21.50;99.90
12049;DHT22;6085;49.452;8.502;2023-03-13T14:05:54;21.10;99.90
12049;DHT22;6085;49.452;8.502;2023-03-13T14:10:06;20.80;99.90
12049;DHT22;6085;49.452;8.502;2023-03-13T14:14:14;20.80;99.90
12049;DHT22;6085;49.452;8.502;2023-03-13T14:18:20;20.80;99.90
12049;DHT22;6085;49.452;8.502;2023-03-13T14:22:25;21.00;99.90
12049;DHT22;6085;49.452;8.502;2023-03-13T14:26:48;21.00;99.90
12049;DHT22;6085;49.452;8.502;2023-03-13T14:30:52;20.90;99.90
12049;DHT22;6085;49.452;8.502;2023-03-13T14:34:54;20.70;99.90
12049;DHT22;6085;49.452;8.502;2023-03-13T14:38:58;20.50;99.90
12049;DHT22;6085;49.452;8.502;2023-03-13T14:43:02;20.50;99.90
12049;DHT22;6085;49.452;8.502;2023-03-13T14:47:07;20.40;99.90
12049;DHT22;6085;49.452;8.502;2023-03-13T14:51:18;20.50;99.90
12049;DHT22;6085;49.452;8.502;2023-03-13T14:55:30;20.90;99.90
12049;DHT22;6085;49.452;8.502;2023-03-13T14:59:34;21.80;99.90
12049;DHT22;6085;49.452;8.502;2023-03-13T15:03:36;22.30;99.90
12049;DHT22;6085;49.452;8.502;2023-03-13T15:07:47;22.20;99.90
12049;DHT22;6085;49.452;8.502;2023-03-13T15:11:55;22.10;99.90
12049;DHT22;6085;49.452;8.502;2023-03-13T15:15:59;22.40;99.90
12049;DHT22;6085;49.452;8.502;2023-03-13T15:20:02;22.90;99.90
12049;DHT22;6085;49.452;8.502;2023-03-13T15:24:12;23.20;99.90
12049;DHT22;6085;49.452;8.502;2023-03-13T15:28:16;23.00;99.90
12049;DHT22;6085;49.452;8.502;2023-03-13T15:32:25;23.10;99.90
12049;DHT22;6085;49.452;8.502;2023-03-13T15:36:28;23.20;99.90
12049;DHT22;6085;49.452;8.502;2023-03-13T15:40:31;22.90;99.90
12049;DHT22;6085;49.452;8.502;2023-03-13T15:44:33;22.60;99.90
12049;DHT22;6085;49.452;8.502;2023-03-13T15:48:37;22.50;99.90
12049;DHT22;6085;49.452;8.502;2023-03-13T15:52:39;21.90;99.90
12049;DHT22;6085;49.452;8.502;2023-03-13T15:56:41;21.40;99.90
12049;DHT22;6085;49.452;8.502;2023-03-13T16:00:43;21.00;99.90
12049;DHT22;6085;49.452;8.502;2023-03-13T16:04:47;20.70;99.90
12049;DHT22;6085;49.452;8.502;2023-03-13T16:08:49;20.20;99.90
12049;DHT22;6085;49.452;8.502;2023-03-13T16:12:51;19.10;99.90
12049;DHT22;6085;49.452;8.502;2023-03-13T16:16:53;18.30;99.90
12049;DHT22;6085;49.452;8.502;2023-03-13T16:20:57;17.80;99.90
12049;DHT22;6085;49.452;8.502;2023-03-13T16:24:58;17.40;99.90
12049;DHT22;6085;49.452;8.502;2023-03-13T16:29:00;17.10;99.90
12049;DHT22;6085;49.452;8.502;2023-03-13T16:33:02;16.80;99.90
12049;DHT22;6085;49.452;8.502;2023-03-13T16:37:11;16.60;99.90
12049;DHT22;6085;49.452;8.502;2023-03-13T16:41:15;16.40;99.90
12049;DHT22;6085;49.452;8.502;2023-03-13T16:45:27;16.30;99.90
12049;DHT22;6085;49.452;8.502;2023-03-13T16:49:29;16.10;99.90
12049;DHT22;6085;49.452;8.502;2023-03-13T16:53:35;16.00;99.90
12049;DHT22;6085;49.452;8.502;2023-03-13T16:57:37;15.70;99.90
12049;DHT22;6085;49.452;8.502;2023-03-13T17:01:39;14.90;99.90
12049;DHT22;6085;49.452;8.502;2023-03-13T17:05:41;14.20;99.90
12049;DHT22;6085;49.452;8.502;2023-03-13T17:09:44;13.80;99.90
12049;DHT22;6085;49.452;8.502;2023-03-13T17:13:48;13.60;99.90
12049;DHT22;6085;49.452;8.502;2023-03-13T17:17:51;13.40;99.90
12049;DHT22;6085;49.452;8.502;2023-03-13T17:21:56;13.20;99.90
12049;DHT22;6085;49.452;8.502;2023-03-13T17:26:00;13.00;99.90
12049;DHT22;6085;49.452;8.502;2023-03-13T17:30:02;12.70;99.90
12049;DHT22;6085;49.452;8.502;2023-03-13T17:34:04;12.60;99.90
12049;DHT22;6085;49.452;8.502;2023-03-13T17:38:08;12.50;99.90
12049;DHT22;6085;49.452;8.502;2023-03-13T17:42:12;12.40;99.90
12049;DHT22;6085;49.452;8.502;2023-03-13T17:46:16;12.40;99.90
12049;DHT22;6085;49.452;8.502;2023-03-13T17:50:21;12.40;99.90
12049;DHT22;6085;49.452;8.502;2023-03-13T17:54:23;12.40;99.90
12049;DHT22;6085;49.452;8.502;2023-03-13T17:58:26;12.30;99.90
12049;DHT22;6085;49.452;8.502;2023-03-13T18:02:28;12.30;99.90
12049;DHT22;6085;49.452;8.502;2023-03-13T18:06:32;12.30;99.90
12049;DHT22;6085;49.452;8.502;2023-03-13T18:10:37;12.30;99.90
12049;DHT22;6085;49.452;8.502;2023-03-13T18:14:41;12.30;99.90
12049;DHT22;6085;49.452;8.502;2023-03-13T18:18:43;12.30;99.90
12049;DHT22;6085;49.452;8.502;2023-03-13T18:22:46;12.40;99.90
12049;DHT22;6085;49.452;8.502;2023-03-13T18:26:49;12.40;99.90
12049;DHT22;6085;49.452;8.502;2023-03-13T18:30:52;12.40;99.90
12049;DHT22;6085;49.452;8.502;2023-03-13T18:34:54;12.20;99.90
12049;DHT22;6085;49.452;8.502;2023-03-13T18:38:57;12.20;99.90
12049;DHT22;6085;49.452;8.502;2023-03-13T18:42:59;12.10;99.90
12049;DHT22;6085;49.452;8.502;2023-03-13T18:47:10;12.10;99.90
12049;DHT22;6085;49.452;8.502;2023-03-13T18:51:13;12.10;99.90
12049;DHT22;6085;49.452;8.502;2023-03-13T18:55:15;12.10;99.90
12049;DHT22;6085;49.452;8.502;2023-03-13T18:59:18;12.10;99.90
12049;DHT22;6085;49.452;8.502;2023-03-13T19:03:22;12.10;99.90
12049;DHT22;6085;49.452;8.502;2023-03-13T19:07:25;12.00;99.90
12049;DHT22;6085;49.452;8.502;2023-03-13T19:11:29;12.00;99.90
12049;DHT22;6085;49.452;8.502;2023-03-13T19:15:31;12.10;99.90
12049;DHT22;6085;49.452;8.502;2023-03-13T19:19:34;12.10;99.90
12049;DHT22;6085;49.452;8.502;2023-03-13T19:23:36;12.10;99.90
12049;DHT22;6085;49.452;8.502;2023-03-13T19:27:38;12.00;99.90
12049;DHT22;6085;49.452;8.502;2023-03-13T19:31:41;11.90;99.90
12049;DHT22;6085;49.452;8.502;2023-03-13T19:35:44;11.80;99.90
12049;DHT22;6085;49.452;8.502;2023-03-13T19:39:46;11.50;99.90
12049;DHT22;6085;49.452;8.502;2023-03-13T19:43:48;11.30;99.90
12049;DHT22;6085;49.452;8.502;2023-03-13T19:47:50;11.10;99.90
12049;DHT22;6085;49.452;8.502;2023-03-13T19:51:54;10.90;99.90
12049;DHT22;6085;49.452;8.502;2023-03-13T19:55:56;10.80;99.90
12049;DHT22;6085;49.452;8.502;2023-03-13T19:59:58;10.80;99.90
12049;DHT22;6085;49.452;8.502;2023-03-13T20:04:00;10.70;99.90
12049;DHT22;6085;49.452;8.502;2023-03-13T20:08:03;10.60;99.90
12049;DHT22;6085;49.452;8.502;2023-03-13T20:12:06;10.50;99.90
12049;DHT22;6085;49.452;8.502;2023-03-13T20:16:08;10.40;99.90
12049;DHT22;6085;49.452;8.502;2023-03-13T20:20:11;10.30;99.90
12049;DHT22;6085;49.452;8.502;2023-03-13T20:24:14;10.20;99.90
12049;DHT22;6085;49.452;8.502;2023-03-13T20:28:17;10.10;99.90
12049;DHT22;6085;49.452;8.502;2023-03-13T20:32:19;10.00;99.90
12049;DHT22;6085;49.452;8.502;2023-03-13T20:36:21;10.00;99.90
12049;DHT22;6085;49.452;8.502;2023-03-13T20:40:25;9.90;99.90
12049;DHT22;6085;49.452;8.502;2023-03-13T20:44:27;9.90;99.90
12049;DHT22;6085;49.452;8.502;2023-03-13T20:48:29;10.00;99.90
12049;DHT22;6085;49.452;8.502;2023-03-13T20:52:31;10.00;99.90
12049;DHT22;6085;49.452;8.502;2023-03-13T20:56:34;10.00;99.90
12049;DHT22;6085;49.452;8.502;2023-03-13T21:00:37;10.00;99.90
12049;DHT22;6085;49.452;8.502;2023-03-13T21:04:39;10.10;99.90
12049;DHT22;6085;49.452;8.502;2023-03-13T21:08:41;10.10;99.90
12049;DHT22;6085;49.452;8.502;2023-03-13T21:12:45;10.10;99.90
12049;DHT22;6085;49.452;8.502;2023-03-13T21:16:47;10.00;99.90
12049;DHT22;6085;49.452;8.502;2023-03-13T21:20:49;10.00;99.90
12049;DHT22;6085;49.452;8.502;2023-03-13T21:24:51;10.00;99.90
12049;DHT22;6085;49.452;8.502;2023-03-13T21:28:54;10.00;99.90
12049;DHT22;6085;49.452;8.502;2023-03-13T21:32:56;10.00;99.90
12049;DHT22;6085;49.452;8.502;2023-03-13T21:37:01;10.00;99.90
12049;DHT22;6085;49.452;8.502;2023-03-13T21:41:06;10.00;99.90
12049;DHT22;6085;49.452;8.502;2023-03-13T21:45:11;10.00;99.90
12049;DHT22;6085;49.452;8.502;2023-03-13T21:49:13;9.90;99.90
12049;DHT22;6085;49.452;8.502;2023-03-13T21:53:15;9.90;99.90
12049;DHT22;6085;49.452;8.502;2023-03-13T21:57:17;9.90;99.90
12049;DHT22;6085;49.452;8.502;2023-03-13T22:01:20;9.90;99.90
12049;DHT22;6085;49.452;8.502;2023-03-13T22:05:22;9.90;99.90
12049;DHT22;6085;49.452;8.502;2023-03-13T22:09:24;9.90;99.90
12049;DHT22;6085;49.452;8.502;2023-03-13T22:13:26;9.90;99.90
12049;DHT22;6085;49.452;8.502;2023-03-13T22:17:29;9.80;99.90
12049;DHT22;6085;49.452;8.502;2023-03-13T22:21:31;9.80;99.90
12049;DHT22;6085;49.452;8.502;2023-03-13T22:25:33;9.80;99.90
12049;DHT22;6085;49.452;8.502;2023-03-13T22:29:38;9.80;99.90
12049;DHT22;6085;49.452;8.502;2023-03-13T22:33:41;9.80;99.90
12049;DHT22;6085;49.452;8.502;2023-03-13T22:37:43;9.80;99.90
12049;DHT22;6085;49.452;8.502;2023-03-13T22:41:45;9.90;99.90
12049;DHT22;6085;49.452;8.502;2023-03-13T22:45:47;9.90;99.90
12049;DHT22;6085;49.452;8.502;2023-03-13T22:49:50;9.90;99.90
12049;DHT22;6085;49.452;8.502;2023-03-13T22:53:53;9.90;99.90
12049;DHT22;6085;49.452;8.502;2023-03-13T22:57:55;9.80;99.90
12049;DHT22;6085;49.452;8.502;2023-03-13T23:01:56;9.70;99.90
12049;DHT22;6085;49.452;8.502;2023-03-13T23:06:00;9.70;99.90
12049;DHT22;6085;49.452;8.502;2023-03-13T23:10:06;9.70;99.90
12049;DHT22;6085;49.452;8.502;2023-03-13T23:14:08;9.80;99.90
12049;DHT22;6085;49.452;8.502;2023-03-13T23:18:11;9.80;99.90
12049;DHT22;6085;49.452;8.502;2023-03-13T23:22:14;9.70;99.90
12049;DHT22;6085;49.452;8.502;2023-03-13T23:26:17;9.80;99.90
12049;DHT22;6085;49.452;8.502;2023-03-13T23:30:19;9.90;99.90
12049;DHT22;6085;49.452;8.502;2023-03-13T23:34:21;9.90;99.90
12049;DHT22;6085;49.452;8.502;2023-03-13T23:38:24;10.00;99.90
12049;DHT22;6085;49.452;8.502;2023-03-13T23:42:26;10.10;99.90
12049;DHT22;6085;49.452;8.502;2023-03-13T23:46:28;10.20;99.90
12049;DHT22;6085;49.452;8.502;2023-03-13T23:50:30;10.20;99.90
12049;DHT22;6085;49.452;8.502;2023-03-13T23:54:34;10.10;99.90
12049;DHT22;6085;49.452;8.502;2023-03-13T23:58:36;10.30;99.90
